Time;durP1;ratioP1;P1;durP2;ratioP2;P2;SDS_P1;SDS_P2;PMS_P1;PMS_P2;Temp;Humidity;BMP_temperature;BMP_pressure;BME280_temperature;BME280_humidity;BME280_pressure;Samples;Min_cycle;Max_cycle;Signal;HPM_P1;HPM_P2
2024/03/09 00:00:24;;;;;;;9.65;8.18;;;;;;;8.94;83.19;97352.91;5090913;28;20044;-49
2024/03/09 00:02:52;;;;;;;13.20;8.07;;;;;;;8.86;83.49;97338.31;5092991;28;20121;-50
2024/03/09 00:05:22;;;;;;;9.48;7.07;;;;;;;9.00;83.22;97336.31;5092970;28;20028;-49
2024/03/09 00:07:48;;;;;;;11.43;7.78;;;;;;;9.32;82.27;97317.75;5092926;28;20058;-50
2024/03/09 00:10:15;;;;;;;9.05;7.03;;;;;;;9.76;83.84;97320.84;5092856;28;20024;-50
2024/03/09 00:12:43;;;;;;;10.75;6.72;;;;;;;10.14;82.80;97322.97;5091450;28;20024;-50
2024/03/09 00:15:12;;;;;;;9.05;5.55;;;;;;;10.06;79.30;97325.13;5092388;28;20040;-50
2024/03/09 00:17:44;;;;;;;7.22;5.70;;;;;;;9.82;78.48;97319.91;5092713;28;20070;-50
2024/03/09 00:20:21;;;;;;;7.65;4.88;;;;;;;9.91;79.88;97322.97;5092661;28;20024;-50
2024/03/09 00:22:47;;;;;;;8.13;4.50;;;;;;;10.45;81.43;97325.41;5091360;28;20036;-50
2024/03/09 00:25:17;;;;;;;6.63;4.40;;;;;;;11.10;81.40;97324.22;5074420;28;20032;-50
2024/03/09 00:27:43;;;;;;;13.77;11.68;;;;;;;11.59;77.38;97319.22;5092875;28;20032;-50
2024/03/09 00:30:54;;;;;;;9.20;5.68;;;;;;;11.89;76.34;97315.44;5092559;28;20493;-48
2024/03/09 00:33:05;;;;;;;3.97;2.90;;;;;;;12.17;73.61;97306.63;5089329;28;20036;-49
2024/03/09 00:35:31;;;;;;;5.13;2.90;;;;;;;12.32;69.90;97303.38;5092328;28;20248;-48
2024/03/09 00:37:58;;;;;;;4.65;2.50;;;;;;;12.43;66.21;97305.06;5092431;28;20055;-48
2024/03/09 00:40:28;;;;;;;4.93;2.80;;;;;;;12.48;64.89;97305.16;5092351;28;20027;-48
2024/03/09 00:42:59;;;;;;;13.13;3.38;;;;;;;12.38;66.10;97310.31;5092382;28;20028;-49
2024/03/09 00:45:25;;;;;;;5.70;2.95;;;;;;;12.39;67.43;97322.41;5091053;28;20482;-48
2024/03/09 00:47:51;;;;;;;3.47;2.63;;;;;;;12.50;66.50;97310.97;5091113;28;20081;-48
2024/03/09 00:50:17;;;;;;;5.45;3.35;;;;;;;12.54;66.50;97309.44;5092253;28;20028;-48
2024/03/09 00:52:44;;;;;;;6.20;4.57;;;;;;;12.51;64.33;97309.13;5092248;28;20028;-48
2024/03/09 00:55:15;;;;;;;6.97;5.72;;;;;;;12.23;62.74;97315.38;5073879;28;20046;-48
2024/03/09 00:57:42;;;;;;;5.40;3.40;;;;;;;11.94;62.24;97308.44;5091191;28;20039;-48
2024/03/09 01:00:15;;;;;;;4.22;3.17;;;;;;;11.72;61.71;97308.38;5090750;28;20375;-48
2024/03/09 01:02:43;;;;;;;3.75;2.72;;;;;;;11.49;62.81;97303.28;5092096;28;20028;-48
2024/03/09 01:05:09;;;;;;;6.18;4.28;;;;;;;11.33;63.61;97299.66;5092169;28;20044;-49
2024/03/09 01:07:37;;;;;;;5.43;3.95;;;;;;;11.43;64.99;97307.69;5091978;28;20099;-48
2024/03/09 01:10:06;;;;;;;5.50;3.70;;;;;;;11.29;63.16;97299.34;5091796;28;20077;-48
2024/03/09 01:12:33;;;;;;;5.68;4.00;;;;;;;11.38;62.94;97289.22;5092088;28;20397;-48
2024/03/09 01:15:03;;;;;;;5.15;4.15;;;;;;;11.25;62.46;97285.09;5091648;28;20695;-51
2024/03/09 01:17:29;;;;;;;5.80;4.20;;;;;;;10.93;63.41;97293.50;5092141;28;20035;-50
2024/03/09 01:19:55;;;;;;;8.43;5.22;;;;;;;10.79;64.68;97293.00;5090736;28;20024;-50
2024/03/09 01:22:21;;;;;;;7.85;5.45;;;;;;;10.73;66.15;97287.91;5091840;28;20026;-50
2024/03/09 01:24:49;;;;;;;7.38;5.60;;;;;;;10.76;65.51;97276.91;5091719;28;20028;-50
2024/03/09 01:27:16;;;;;;;10.20;7.00;;;;;;;10.68;65.66;97264.19;5091706;28;20028;-50
2024/03/09 01:29:47;;;;;;;8.68;6.05;;;;;;;10.85;65.73;97259.75;5091726;28;20028;-50
2024/03/09 01:32:15;;;;;;;8.80;6.47;;;;;;;11.19;66.24;97257.16;5091690;28;20031;-50
2024/03/09 01:34:41;;;;;;;5.30;4.55;;;;;;;11.62;65.64;97258.31;5090257;28;20489;-50
2024/03/09 01:37:10;;;;;;;5.47;3.78;;;;;;;11.99;64.05;97250.66;5091650;28;20024;-48
2024/03/09 01:39:38;;;;;;;12.82;7.97;;;;;;;12.26;62.36;97241.25;5091644;28;20411;-48
2024/03/09 01:42:05;;;;;;;7.38;5.60;;;;;;;12.47;61.93;97244.88;5090292;28;20577;-48
2024/03/09 01:44:31;;;;;;;7.43;4.20;;;;;;;12.37;59.65;97245.56;5091567;28;20418;-48
2024/03/09 01:46:58;;;;;;;4.90;3.65;;;;;;;12.24;58.99;97243.31;5090272;28;20028;-48
2024/03/09 01:49:23;;;;;;;4.50;3.47;;;;;;;12.34;60.01;97243.44;5090364;28;20493;-48
2024/03/09 01:51:52;;;;;;;8.57;4.85;;;;;;;12.66;59.70;97229.53;5090249;28;20056;-48
2024/03/09 01:54:23;;;;;;;4.10;2.83;;;;;;;13.06;57.00;97220.38;5091582;28;20016;-48
2024/03/09 01:56:53;;;;;;;5.57;5.03;;;;;;;13.30;56.21;97213.75;5091337;28;20024;-48
2024/03/09 01:59:21;;;;;;;9.40;6.80;;;;;;;13.53;55.64;97212.53;5090196;28;20028;-48
2024/03/09 02:01:51;;;;;;;7.50;5.32;;;;;;;13.77;55.27;97199.75;5091475;28;20027;-48
2024/03/09 02:04:17;;;;;;;6.63;3.28;;;;;;;13.98;54.78;97199.81;5091435;28;20048;-48
2024/03/09 02:06:43;;;;;;;5.40;3.80;;;;;;;14.18;54.84;97194.63;5091426;28;20032;-48
2024/03/09 02:09:08;;;;;;;3.38;2.60;;;;;;;14.32;53.15;97188.81;5090071;28;20035;-48
2024/03/09 02:11:42;;;;;;;4.05;2.80;;;;;;;14.29;51.92;97178.81;5091371;28;20537;-48
2024/03/09 02:14:09;;;;;;;6.15;2.80;;;;;;;14.15;50.68;97170.59;5090123;28;20439;-48
2024/03/09 02:16:34;;;;;;;7.53;2.78;;;;;;;13.85;50.30;97164.19;5090983;28;20482;-48
2024/03/09 02:19:06;;;;;;;3.28;2.60;;;;;;;13.57;50.61;97160.13;5091367;28;20131;-48
2024/03/09 02:21:34;;;;;;;5.60;3.08;;;;;;;13.45;51.54;97162.97;5091308;28;20389;-48
2024/03/09 02:24:08;;;;;;;4.82;2.63;;;;;;;13.32;51.98;97151.03;5094459;28;20031;-48
2024/03/09 02:26:37;;;;;;;6.15;2.97;;;;;;;13.18;52.16;97149.88;5094867;28;20027;-48
2024/03/09 02:29:04;;;;;;;3.03;2.28;;;;;;;13.19;52.38;97152.25;5094874;28;20023;-48
2024/03/09 02:31:30;;;;;;;4.65;2.55;;;;;;;13.48;54.07;97151.09;5093491;28;20062;-48
2024/03/09 02:33:56;;;;;;;5.68;3.03;;;;;;;13.86;53.10;97154.41;5094753;28;20097;-48
2024/03/09 02:36:26;;;;;;;3.42;2.00;;;;;;;14.21;52.18;97150.31;5093272;28;20032;-48
2024/03/09 02:38:52;;;;;;;3.78;2.13;;;;;;;14.45;51.26;97132.13;5094694;28;20012;-48
2024/03/09 02:41:18;;;;;;;5.03;2.20;;;;;;;14.52;48.49;97137.91;5094587;28;20027;-48
2024/03/09 02:43:46;;;;;;;16.58;4.18;;;;;;;14.27;47.26;97123.66;5093247;28;20050;-48
2024/03/09 02:46:15;;;;;;;4.13;1.92;;;;;;;13.95;48.12;97132.56;5094519;28;20024;-48
2024/03/09 02:48:45;;;;;;;5.18;1.80;;;;;;;13.77;48.09;97123.28;5093141;28;20027;-48
2024/03/09 02:51:12;;;;;;;3.10;1.67;;;;;;;13.69;48.36;97121.16;5094513;28;20028;-48
2024/03/09 02:53:42;;;;;;;2.58;1.55;;;;;;;13.75;47.45;97120.09;5094409;28;20020;-48
2024/03/09 02:56:12;;;;;;;3.38;1.50;;;;;;;13.74;46.96;97112.44;5092931;28;20027;-48
2024/03/09 02:58:38;;;;;;;3.97;1.38;;;;;;;13.78;46.17;97109.06;5094264;28;20577;-49
2024/03/09 03:01:08;;;;;;;4.32;1.55;;;;;;;13.73;46.49;97109.03;5092921;28;20028;-49
2024/03/09 03:06:20;;;;;;;3.50;1.70;;;;;;;13.72;46.58;97099.56;5093466;28;20035;-48
2024/03/09 03:08:53;;;;;;;4.35;1.20;;;;;;;13.88;44.75;97100.34;5092774;28;20024;-48
2024/03/09 03:11:21;;;;;;;3.53;1.40;;;;;;;13.82;44.98;97103.25;5093977;28;20043;-48
2024/03/09 03:13:48;;;;;;;2.95;1.50;;;;;;;13.70;45.63;97106.09;5093941;28;20416;-48
2024/03/09 03:16:36;;;;;;;3.75;1.20;;;;;;;13.65;45.13;97106.13;5093598;28;20054;-48
2024/03/09 03:19:07;;;;;;;4.03;1.90;;;;;;;13.70;46.42;97111.38;5093917;28;20608;-48
2024/03/09 03:21:34;;;;;;;3.50;1.88;;;;;;;13.93;46.59;97107.50;5092819;28;20047;-48
2024/03/09 03:24:01;;;;;;;2.10;1.30;;;;;;;14.09;46.06;97113.59;5092484;28;20118;-48
2024/03/09 03:26:27;;;;;;;3.25;1.77;;;;;;;14.17;44.84;97102.53;5093690;28;20028;-49
2024/03/09 03:28:53;;;;;;;3.70;1.70;;;;;;;14.19;44.98;97109.13;5093699;28;20405;-48
2024/03/09 03:31:20;;;;;;;3.30;1.80;;;;;;;14.20;43.99;97107.28;5093621;28;20088;-48
2024/03/09 03:33:47;;;;;;;4.63;2.50;;;;;;;13.92;45.01;97100.63;5092564;28;20394;-49
2024/03/09 03:36:18;;;;;;;3.95;2.33;;;;;;;13.72;44.92;97104.81;5093389;28;20111;-48
2024/03/09 03:38:49;;;;;;;3.80;2.00;;;;;;;13.53;45.69;97101.06;5093544;28;20020;-48
2024/03/09 03:41:16;;;;;;;4.38;2.60;;;;;;;13.51;46.30;97092.63;5093663;28;20514;-48
2024/03/09 03:43:44;;;;;;;4.65;2.88;;;;;;;13.43;46.21;97096.53;5093337;28;20520;-48
2024/03/09 03:46:12;;;;;;;3.78;2.67;;;;;;;13.32;46.99;97095.72;5093282;28;20036;-48
2024/03/09 03:48:44;;;;;;;5.50;3.08;;;;;;;13.31;47.16;97086.22;5093335;28;20016;-48
2024/03/09 03:51:12;;;;;;;4.40;2.70;;;;;;;13.34;46.70;97083.06;5093561;28;20115;-48
2024/03/09 03:53:39;;;;;;;4.55;2.47;;;;;;;13.26;46.90;97083.53;5093156;28;20027;-48
2024/03/09 03:56:07;;;;;;;4.70;2.38;;;;;;;13.30;47.12;97087.28;5093140;28;20436;-48
2024/03/09 03:58:33;;;;;;;7.95;2.55;;;;;;;13.38;46.47;97089.41;5092093;28;20024;-48
2024/03/09 04:00:59;;;;;;;5.05;2.22;;;;;;;13.52;46.39;97086.28;5093338;28;20436;-48
2024/03/09 04:03:31;;;;;;;2.75;1.90;;;;;;;13.74;45.41;97086.09;5092970;28;20020;-48
2024/03/09 04:05:58;;;;;;;2.92;1.80;;;;;;;13.84;45.34;97085.31;5092970;28;20025;-48
2024/03/09 04:08:23;;;;;;;4.72;3.08;;;;;;;13.97;45.40;97077.69;5092905;28;20020;-48
2024/03/09 04:10:52;;;;;;;5.25;2.00;;;;;;;14.14;45.09;97079.31;5092867;28;20081;-48
2024/03/09 04:13:23;;;;;;;3.40;1.90;;;;;;;14.00;44.92;97073.75;5092912;28;20020;-48
2024/03/09 04:15:55;;;;;;;3.20;1.92;;;;;;;13.74;45.12;97075.53;5092477;28;20048;-48
2024/03/09 04:18:26;;;;;;;3.42;1.98;;;;;;;13.62;44.63;97061.81;5092811;28;20088;-48
2024/03/09 04:20:53;;;;;;;5.43;1.95;;;;;;;13.51;45.07;97072.31;5092695;28;20043;-48
2024/03/09 04:23:21;;;;;;;4.30;2.10;;;;;;;13.47;45.30;97073.09;5092614;28;20020;-48
2024/03/09 04:26:36;;;;;;;4.70;1.90;;;;;;;13.34;45.42;97069.09;5092646;28;20035;-48
2024/03/09 04:28:35;;;;;;;5.18;1.92;;;;;;;13.07;46.00;97072.63;5088463;28;20383;-48
2024/03/09 04:31:01;;;;;;;5.75;1.80;;;;;;;13.05;47.13;97063.41;5092865;28;20493;-48
2024/03/09 04:33:28;;;;;;;3.40;2.58;;;;;;;13.33;46.45;97070.94;5092449;28;20452;-48
2024/03/09 04:35:54;;;;;;;3.70;1.92;;;;;;;13.45;45.67;97060.19;5092351;28;20110;-48
2024/03/09 04:38:20;;;;;;;4.85;1.73;;;;;;;13.50;45.66;97051.47;5092417;28;20110;-48
2024/03/09 04:40:48;;;;;;;5.93;1.77;;;;;;;13.67;45.32;97043.38;5092290;28;20024;-48
2024/03/09 04:43:14;;;;;;;4.60;1.88;;;;;;;13.74;44.49;97049.19;5092328;28;20056;-48
2024/03/09 04:45:40;;;;;;;4.22;2.22;;;;;;;13.82;44.50;97053.94;5090535;28;20071;-48
2024/03/09 04:48:06;;;;;;;7.00;2.00;;;;;;;13.88;44.30;97044.19;5091241;28;20562;-48
2024/03/09 04:50:35;;;;;;;3.45;1.58;;;;;;;13.96;44.55;97033.94;5092202;28;20098;-48
2024/03/09 04:53:08;;;;;;;3.50;1.70;;;;;;;13.96;44.27;97027.84;5090872;28;20081;-48
2024/03/09 04:55:35;;;;;;;3.05;1.90;;;;;;;13.91;43.90;97031.28;5092107;28;20103;-48
2024/03/09 04:58:04;;;;;;;3.38;1.48;;;;;;;13.83;42.91;97023.09;5092099;28;20020;-48
2024/03/09 05:00:30;;;;;;;8.77;6.18;;;;;;;13.71;44.16;97028.63;5090966;28;20482;-48
2024/03/09 05:02:57;;;;;;;8.10;6.85;;;;;;;13.67;43.54;97023.06;5091972;28;20035;-48
2024/03/09 05:05:29;;;;;;;3.70;2.53;;;;;;;13.64;44.33;97020.94;5092021;28;20020;-48
2024/03/09 05:07:55;;;;;;;2.53;1.30;;;;;;;13.83;43.06;97017.84;5092013;28;20405;-48
2024/03/09 05:10:22;;;;;;;5.20;3.08;;;;;;;13.91;42.99;97017.31;5090642;28;20032;-48
2024/03/09 05:12:55;;;;;;;2.65;1.55;;;;;;;13.93;42.83;97012.56;5090688;28;20106;-48
2024/03/09 05:15:30;;;;;;;2.03;1.05;;;;;;;14.00;42.32;97013.06;5090322;28;20032;-48
2024/03/09 05:18:02;;;;;;;3.17;1.30;;;;;;;14.10;42.22;97017.56;5091917;28;20056;-48
2024/03/09 05:20:29;;;;;;;9.02;2.50;;;;;;;14.18;42.70;97019.69;5090524;28;20020;-48
2024/03/09 05:22:59;;;;;;;5.20;2.47;;;;;;;14.28;41.52;97000.41;5090487;28;20035;-48
2024/03/09 05:25:26;;;;;;;5.38;1.42;;;;;;;14.24;40.68;96994.88;5091996;28;20024;-48
2024/03/09 05:27:53;;;;;;;5.82;1.20;;;;;;;13.98;41.49;96992.25;5091703;28;20020;-48
2024/03/09 05:30:22;;;;;;;9.50;2.45;;;;;;;13.92;41.65;96990.69;5091705;28;20020;-48
2024/03/09 05:33:00;;;;;;;4.43;2.10;;;;;;;13.73;42.53;97003.56;5091961;28;20074;-48
2024/03/09 05:35:34;;;;;;;3.42;1.25;;;;;;;13.83;42.12;96988.81;5090344;28;20490;-48
2024/03/09 05:38:00;;;;;;;6.57;4.70;;;;;;;13.94;42.22;96988.56;5091716;28;20028;-48
2024/03/09 05:40:28;;;;;;;2.95;1.40;;;;;;;13.99;41.72;96982.50;5091645;28;20123;-48
2024/03/09 05:42:55;;;;;;;6.82;1.20;;;;;;;13.94;41.86;96971.94;5091701;28;20028;-48
2024/03/09 05:45:22;;;;;;;5.75;2.15;;;;;;;14.03;42.63;96980.13;5091695;28;20032;-48
2024/03/09 05:47:53;;;;;;;13.73;7.65;;;;;;;14.23;42.22;96971.41;5090629;28;20081;-48
2024/03/09 05:50:19;;;;;;;11.27;9.32;;;;;;;14.29;41.48;96976.41;5090274;28;20509;-48
2024/03/09 05:52:52;;;;;;;6.53;3.97;;;;;;;14.15;41.44;96954.25;5091532;28;20086;-48
2024/03/09 05:55:19;;;;;;;15.95;3.33;;;;;;;14.17;41.38;96967.97;5090242;28;20043;-49
2024/03/09 05:57:49;;;;;;;5.88;1.33;;;;;;;14.25;40.67;96951.59;5092620;28;20382;-48
2024/03/09 06:00:19;;;;;;;3.05;1.30;;;;;;;14.13;40.07;96945.81;5094138;28;20097;-48
2024/03/09 06:02:46;;;;;;;4.28;1.58;;;;;;;13.82;40.73;96939.78;5094053;28;20024;-48
2024/03/09 06:05:13;;;;;;;5.93;1.58;;;;;;;13.64;41.56;96927.91;5095263;28;20055;-48
2024/03/09 06:07:41;;;;;;;9.13;1.88;;;;;;;13.22;42.55;96919.13;5095241;28;20024;-48
2024/03/09 06:10:18;;;;;;;8.80;2.35;;;;;;;12.84;43.59;96909.81;5093957;28;20028;-48
2024/03/09 06:12:46;;;;;;;6.85;2.25;;;;;;;12.52;44.80;96901.00;5095506;28;20145;-48
2024/03/09 06:15:16;;;;;;;11.68;2.13;;;;;;;12.46;45.84;96901.25;5094942;28;20066;-48
2024/03/09 06:17:49;;;;;;;10.10;1.98;;;;;;;12.73;45.81;96903.72;5095051;28;20114;-48
2024/03/09 06:20:17;;;;;;;6.70;2.17;;;;;;;13.05;45.30;96885.13;5094039;28;20028;-48
2024/03/09 06:22:45;;;;;;;6.43;2.45;;;;;;;13.49;44.16;96883.88;5094995;28;20016;-48
2024/03/09 06:25:12;;;;;;;4.00;2.03;;;;;;;14.08;43.03;96898.34;5095218;28;20127;-48
2024/03/09 06:27:39;;;;;;;3.80;1.77;;;;;;;14.28;41.64;96879.81;5093565;28;20055;-48
2024/03/09 06:30:09;;;;;;;14.88;13.48;;;;;;;14.17;41.90;96873.00;5076756;28;20031;-48
2024/03/09 06:32:35;;;;;;;9.52;5.13;;;;;;;14.03;41.96;96885.97;5093460;28;20039;-48
2024/03/09 06:35:02;;;;;;;6.80;1.75;;;;;;;13.84;42.15;96882.28;5093495;28;20054;-48
2024/03/09 06:37:28;;;;;;;4.55;1.77;;;;;;;13.44;42.30;96875.97;5094760;28;20024;-48
2024/03/09 06:39:54;;;;;;;5.43;2.95;;;;;;;13.06;43.16;96865.66;5094942;28;20062;-48
2024/03/09 06:42:21;;;;;;;5.50;2.03;;;;;;;12.74;43.34;96873.72;5093305;28;20032;-48
2024/03/09 06:44:50;;;;;;;5.03;2.15;;;;;;;12.53;44.34;96872.84;5093285;28;20025;-48
2024/03/09 06:47:16;;;;;;;6.45;2.63;;;;;;;12.27;45.00;96862.22;5093218;28;20023;-48
2024/03/09 06:49:42;;;;;;;5.30;2.33;;;;;;;12.27;45.09;96859.56;5094473;28;20020;-49
2024/03/09 06:52:08;;;;;;;5.10;1.63;;;;;;;12.07;44.76;96864.75;5094475;28;20020;-49
2024/03/09 06:54:33;;;;;;;6.03;2.40;;;;;;;11.96;45.45;96861.28;5094424;28;20012;-48
2024/03/09 06:57:00;;;;;;;2.75;1.85;;;;;;;12.06;45.01;96861.31;5094253;28;20017;-48
2024/03/09 06:59:25;;;;;;;7.70;1.77;;;;;;;12.21;45.21;96865.09;5092947;28;20032;-48
2024/03/09 07:01:59;;;;;;;2.40;1.52;;;;;;;12.53;43.56;96854.44;5094537;28;20027;-48
2024/03/09 07:04:25;;;;;;;5.80;2.03;;;;;;;12.81;43.46;96861.09;5094294;28;20024;-48
2024/03/09 07:06:56;;;;;;;3.67;1.40;;;;;;;12.98;42.16;96848.50;5093031;28;20104;-48
2024/03/09 07:09:23;;;;;;;4.20;2.33;;;;;;;13.11;43.35;96862.22;5093731;28;20020;-48
2024/03/09 07:11:52;;;;;;;7.65;1.60;;;;;;;13.27;42.34;96858.53;5092753;28;20024;-48
2024/03/09 07:14:18;;;;;;;2.15;0.55;;;;;;;13.49;41.82;96857.53;5093817;28;20109;-50
2024/03/09 07:16:46;;;;;;;7.55;1.80;;;;;;;13.76;41.45;96865.97;5094156;28;20062;-48
2024/03/09 07:19:13;;;;;;;7.40;1.63;;;;;;;14.08;40.17;96848.22;5093835;28;20030;-48
2024/03/09 07:21:42;;;;;;;4.80;2.17;;;;;;;14.43;40.34;96849.16;5093861;28;20030;-48
2024/03/09 07:24:08;;;;;;;5.88;1.77;;;;;;;14.86;39.19;96845.03;5093850;28;20121;-48
2024/03/09 07:26:37;;;;;;;3.63;1.00;;;;;;;14.94;38.69;96838.38;5093763;28;20101;-48
2024/03/09 07:29:03;;;;;;;2.38;1.45;;;;;;;14.95;38.62;96848.69;5092421;28;20035;-48
2024/03/09 07:31:29;;;;;;;9.32;1.77;;;;;;;15.07;38.80;96842.25;5092272;28;20428;-48
2024/03/09 07:33:56;;;;;;;2.80;1.40;;;;;;;15.27;38.83;96826.28;5093589;28;20020;-48
2024/03/09 07:36:22;;;;;;;6.30;1.40;;;;;;;15.41;38.19;96841.47;5093446;28;20020;-48
2024/03/09 07:38:51;;;;;;;3.60;2.13;;;;;;;15.71;37.57;96840.44;5093518;28;20030;-48
2024/03/09 07:41:17;;;;;;;14.05;7.22;;;;;;;15.94;36.82;96844.22;5093485;28;20021;-49
2024/03/09 07:43:43;;;;;;;8.50;2.95;;;;;;;16.07;36.33;96843.53;5092040;28;20024;-48
2024/03/09 07:46:09;;;;;;;4.00;1.77;;;;;;;16.22;36.34;96836.50;5093441;28;20085;-48
2024/03/09 07:48:35;;;;;;;2.53;1.02;;;;;;;16.37;34.95;96853.00;5093284;28;20028;-48
2024/03/09 07:51:01;;;;;;;6.13;1.17;;;;;;;16.43;35.50;96840.50;5092275;28;20423;-49
2024/03/09 07:53:27;;;;;;;6.30;2.80;;;;;;;16.57;34.78;96848.53;5093324;28;20062;-48
2024/03/09 07:55:57;;;;;;;7.00;1.83;;;;;;;16.64;34.36;96850.81;5093075;28;20474;-48
2024/03/09 07:58:24;;;;;;;5.78;1.13;;;;;;;16.60;34.24;96833.94;5091936;28;20074;-48
2024/03/09 08:00:50;;;;;;;5.10;0.70;;;;;;;16.63;33.92;96842.09;5091757;28;20031;-48
2024/03/09 08:03:17;;;;;;;6.20;0.77;;;;;;;16.59;33.82;96838.44;5093126;28;20047;-49
2024/03/09 08:05:43;;;;;;;0.70;0.60;;;;;;;16.48;33.51;96829.84;5093001;28;20024;-48
2024/03/09 08:08:11;;;;;;;3.28;1.33;;;;;;;16.32;33.64;96829.25;5091920;28;20024;-48
2024/03/09 08:10:45;;;;;;;2.58;0.32;;;;;;;16.38;32.65;96830.75;5091884;28;20123;-48
2024/03/09 08:13:11;;;;;;;7.35;2.97;;;;;;;16.33;33.91;96828.16;5092858;28;20429;-48
2024/03/09 08:15:36;;;;;;;1.50;1.30;;;;;;;16.54;33.46;96827.91;5092731;28;20040;-48
2024/03/09 08:18:02;;;;;;;4.60;1.08;;;;;;;16.64;33.47;96841.03;5092742;28;20028;-49
2024/03/09 08:20:28;;;;;;;1.60;0.90;;;;;;;16.67;33.36;96829.84;5092027;28;20512;-48
2024/03/09 08:22:55;;;;;;;4.88;1.77;;;;;;;16.80;33.46;96843.47;5092691;28;20055;-48
2024/03/09 08:25:25;;;;;;;4.20;0.80;;;;;;;17.02;33.09;96842.94;5092519;28;20068;-48
2024/03/09 08:27:51;;;;;;;6.18;0.98;;;;;;;17.09;32.10;96830.13;5092914;28;20107;-48
2024/03/09 08:30:21;;;;;;;3.78;1.15;;;;;;;17.08;32.62;96812.63;5092614;28;20406;-48
2024/03/09 08:32:54;;;;;;;2.58;0.60;;;;;;;17.09;32.09;96819.50;5092538;28;20125;-48
2024/03/09 08:35:21;;;;;;;0.55;0.32;;;;;;;16.89;32.02;96828.53;5092707;28;20024;-48
2024/03/09 08:37:50;;;;;;;3.30;0.88;;;;;;;16.65;32.33;96833.88;5091140;28;20020;-48
2024/03/09 08:40:23;;;;;;;1.55;0.90;;;;;;;16.74;32.73;96842.75;5092280;28;20016;-48
2024/03/09 08:42:52;;;;;;;1.10;0.63;;;;;;;17.04;32.04;96838.13;5092441;28;20063;-48
2024/03/09 08:45:22;;;;;;;2.08;1.08;;;;;;;17.17;31.97;96826.81;5092254;28;20024;-48
2024/03/09 08:47:52;;;;;;;1.30;0.50;;;;;;;17.29;31.60;96824.50;5092270;28;20035;-48
2024/03/09 08:50:23;;;;;;;2.10;0.75;;;;;;;17.29;31.93;96823.72;5092259;28;20024;-48
2024/03/09 08:52:49;;;;;;;3.50;1.52;;;;;;;17.40;31.60;96829.63;5092275;28;20043;-48
2024/03/09 08:55:15;;;;;;;2.75;1.73;;;;;;;17.54;31.18;96830.44;5092008;28;20032;-48
2024/03/09 08:57:46;;;;;;;2.95;0.57;;;;;;;17.76;31.30;96838.56;5092144;28;20023;-48
2024/03/09 09:00:13;;;;;;;2.38;0.65;;;;;;;17.94;29.72;96836.16;5092099;28;20063;-48
2024/03/09 09:02:40;;;;;;;5.72;1.05;;;;;;;17.75;30.80;96841.53;5092329;28;20414;-49
2024/03/09 09:05:11;;;;;;;2.25;0.70;;;;;;;17.71;30.92;96836.00;5091958;28;20024;-48
2024/03/09 09:07:40;;;;;;;3.33;0.70;;;;;;;17.87;31.75;96822.50;5092013;28;20154;-47
2024/03/09 09:10:17;;;;;;;3.63;1.67;;;;;;;18.14;30.38;96842.97;5091978;28;20062;-47
2024/03/09 09:12:45;;;;;;;1.63;0.77;;;;;;;18.02;30.07;96810.81;5090721;28;20027;-47
2024/03/09 09:15:12;;;;;;;2.03;1.33;;;;;;;17.86;30.64;96847.47;5091553;28;20050;-47
2024/03/09 09:17:42;;;;;;;0.65;0.63;;;;;;;17.68;29.76;96810.03;5091890;28;20027;-47
2024/03/09 09:20:12;;;;;;;3.65;2.47;;;;;;;17.49;30.28;96834.00;5091827;28;20016;-47
2024/03/09 09:22:42;;;;;;;4.07;2.92;;;;;;;17.52;31.27;96853.81;5092132;28;20051;-47
2024/03/09 09:25:16;;;;;;;2.13;1.40;;;;;;;17.77;30.25;96848.09;5091873;28;20028;-47
2024/03/09 09:27:45;;;;;;;6.13;1.30;;;;;;;18.13;30.25;96839.53;5091877;28;20104;-47
2024/03/09 09:30:12;;;;;;;4.68;1.50;;;;;;;18.33;29.31;96821.59;5091787;28;20028;-47
2024/03/09 09:32:40;;;;;;;7.93;4.22;;;;;;;18.54;29.37;96829.97;5094458;28;20021;-47
2024/03/09 09:35:06;;;;;;;2.40;1.20;;;;;;;18.48;28.47;96828.50;5095879;28;20028;-47
2024/03/09 09:37:33;;;;;;;2.33;1.58;;;;;;;18.07;29.00;96850.53;5095904;28;20397;-47
2024/03/09 09:40:02;;;;;;;5.47;3.58;;;;;;;17.92;29.90;96836.44;5095801;28;20024;-47
2024/03/09 09:42:32;;;;;;;3.08;1.42;;;;;;;18.03;32.35;96846.88;5095821;28;20020;-47
2024/03/09 09:44:58;;;;;;;2.28;1.20;;;;;;;18.20;29.17;96855.06;5095812;28;20053;-47
2024/03/09 09:47:29;;;;;;;7.63;4.32;;;;;;;18.08;29.35;96842.25;5095661;28;20024;-47
2024/03/09 09:49:56;;;;;;;1.13;1.02;;;;;;;17.86;29.53;96844.81;5094482;28;20036;-46
2024/03/09 09:52:25;;;;;;;2.47;2.22;;;;;;;17.81;29.63;96848.31;5094299;28;20024;-47
2024/03/09 09:54:55;;;;;;;2.85;2.35;;;;;;;17.85;29.68;96843.22;5094295;28;20028;-47
2024/03/09 09:57:21;;;;;;;27.15;20.10;;;;;;;17.83;30.20;96840.03;5095367;28;20020;-47
2024/03/09 09:59:47;;;;;;;21.55;18.35;;;;;;;17.82;30.21;96843.78;5095509;28;20028;-47
2024/03/09 10:02:16;;;;;;;27.90;21.45;;;;;;;17.86;29.93;96858.06;5095369;28;20062;-47
2024/03/09 10:04:43;;;;;;;11.05;6.72;;;;;;;17.78;29.26;96846.22;5095376;28;20020;-47
2024/03/09 10:07:10;;;;;;;17.33;14.98;;;;;;;17.66;29.83;96837.94;5095377;28;20101;-47
2024/03/09 10:09:36;;;;;;;34.78;25.17;;;;;;;17.59;30.08;96833.03;5095276;28;20398;-47
2024/03/09 10:12:03;;;;;;;44.17;39.35;;;;;;;17.60;30.47;96833.81;5095246;28;20043;-47
2024/03/09 10:14:30;;;;;;;16.92;14.30;;;;;;;17.63;30.78;96844.63;5094904;28;20020;-47
2024/03/09 10:17:12;;;;;;;6.22;5.28;;;;;;;17.68;30.52;96825.19;5095188;28;20157;-47
2024/03/09 10:19:38;;;;;;;5.90;3.08;;;;;;;17.86;29.90;96834.19;5095019;28;20082;-47
2024/03/09 10:22:05;;;;;;;12.88;2.38;;;;;;;17.88;29.07;96826.72;5093722;28;20055;-47
2024/03/09 10:24:31;;;;;;;1.85;1.10;;;;;;;17.86;29.07;96836.84;5094949;28;20521;-47
2024/03/09 10:27:06;;;;;;;4.07;1.65;;;;;;;17.76;29.35;96838.56;5095009;28;20028;-47
2024/03/09 10:29:32;;;;;;;1.90;0.60;;;;;;;17.91;28.69;96818.97;5095010;28;20023;-47
2024/03/09 10:32:00;;;;;;;3.38;1.73;;;;;;;17.86;29.32;96860.72;5094878;28;20055;-47
2024/03/09 10:34:30;;;;;;;3.47;1.45;;;;;;;17.99;29.26;96844.03;5094885;28;20031;-47
2024/03/09 10:37:03;;;;;;;4.60;1.60;;;;;;;18.18;28.27;96849.25;5094740;28;20027;-47
2024/03/09 10:39:32;;;;;;;4.90;1.05;;;;;;;18.21;28.23;96842.56;5094839;28;20085;-47
2024/03/09 10:42:00;;;;;;;2.97;1.10;;;;;;;18.23;28.73;96821.81;5094764;28;20021;-47
2024/03/09 10:44:28;;;;;;;6.95;2.30;;;;;;;18.23;28.55;96824.47;5094222;28;20160;-47
2024/03/09 10:47:03;;;;;;;4.88;2.00;;;;;;;18.41;27.76;96825.44;5094588;28;20027;-47
2024/03/09 10:49:30;;;;;;;2.25;1.15;;;;;;;18.23;27.88;96808.53;5094572;28;20410;-47
2024/03/09 10:52:07;;;;;;;4.72;1.30;;;;;;;18.18;28.26;96809.44;5094535;28;20028;-47
2024/03/09 10:54:44;;;;;;;2.92;0.85;;;;;;;18.19;27.83;96812.88;5094420;28;20032;-47
2024/03/09 10:57:16;;;;;;;2.30;0.85;;;;;;;18.28;27.99;96803.91;5094367;28;20024;-47
2024/03/09 10:59:43;;;;;;;2.15;1.23;;;;;;;18.15;27.52;96802.06;5093084;28;20038;-47
2024/03/09 11:02:10;;;;;;;8.27;5.35;;;;;;;18.01;27.86;96825.97;5094291;28;20016;-47
2024/03/09 11:04:37;;;;;;;7.75;5.30;;;;;;;17.99;27.89;96798.13;5094278;28;20405;-47
2024/03/09 11:07:04;;;;;;;6.18;4.65;;;;;;;17.95;28.23;96792.63;5094247;28;20024;-47
2024/03/09 11:09:31;;;;;;;4.93;4.07;;;;;;;18.09;27.78;96784.66;5094191;28;20518;-47
2024/03/09 11:12:01;;;;;;;4.32;3.00;;;;;;;18.06;28.22;96801.97;5094070;28;20016;-47
2024/03/09 11:14:27;;;;;;;2.83;1.88;;;;;;;18.13;28.22;96789.09;5093920;28;20032;-47
2024/03/09 11:16:55;;;;;;;6.15;2.08;;;;;;;18.25;27.95;96806.38;5093986;28;20101;-47
2024/03/09 11:19:22;;;;;;;3.05;0.88;;;;;;;18.31;27.91;96773.31;5092664;28;20024;-47
2024/03/09 11:21:51;;;;;;;8.23;1.80;;;;;;;18.39;27.76;96791.25;5092581;28;20024;-47
2024/03/09 11:24:19;;;;;;;5.18;0.80;;;;;;;18.44;27.64;96771.75;5093889;28;20028;-47
2024/03/09 11:26:52;;;;;;;1.65;0.43;;;;;;;18.39;27.70;96785.94;5093849;28;20024;-47
2024/03/09 11:29:21;;;;;;;1.60;0.70;;;;;;;18.34;27.23;96778.81;5093871;28;20028;-47
2024/03/09 11:31:50;;;;;;;0.95;0.52;;;;;;;18.22;27.93;96783.84;5093983;28;20425;-47
2024/03/09 11:34:21;;;;;;;0.40;0.28;;;;;;;18.06;28.02;96761.34;5093734;28;20546;-47
2024/03/09 11:37:04;;;;;;;1.10;0.80;;;;;;;17.94;28.44;96777.78;5093538;28;20052;-47
2024/03/09 11:39:32;;;;;;;0.77;0.30;;;;;;;18.00;27.59;96770.50;5093637;28;20046;-47